createdAt,value
2017-09-01T00:00:46.255Z,1012.56
2017-09-01T00:01:46.235Z,1012.52
2017-09-01T00:02:46.222Z,1012.5
2017-09-01T00:03:46.204Z,1012.55
2017-09-01T00:04:46.190Z,1012.54
2017-09-01T00:05:46.178Z,1012.54
2017-09-01T00:06:46.163Z,1012.57
2017-09-01T00:07:46.154Z,1012.54
2017-09-01T00:08:46.333Z,1012.55
2017-09-01T00:09:46.117Z,1012.6
2017-09-01T00:10:46.103Z,1012.58
2017-09-01T00:11:46.088Z,1012.58
2017-09-01T00:12:46.073Z,1012.56
2017-09-01T00:13:46.061Z,1012.54
2017-09-01T00:14:46.045Z,1012.52
2017-09-01T00:15:46.029Z,1012.53
2017-09-01T00:16:46.016Z,1012.55
2017-09-01T00:17:46.001Z,1012.52
2017-09-01T00:18:45.985Z,1012.53
2017-09-01T00:19:45.970Z,1012.51
2017-09-01T00:20:45.957Z,1012.48
2017-09-01T00:21:45.941Z,1012.52
2017-09-01T00:22:45.927Z,1012.54
2017-09-01T00:23:45.912Z,1012.5
2017-09-01T00:24:45.897Z,1012.48
2017-09-01T00:25:45.881Z,1012.42
2017-09-01T00:26:45.868Z,1012.42
2017-09-01T00:27:45.858Z,1012.38
2017-09-01T00:28:45.840Z,1012.38
2017-09-01T00:29:45.825Z,1012.38
2017-09-01T00:30:45.810Z,1012.32
2017-09-01T00:31:45.795Z,1012.35
2017-09-01T00:32:45.779Z,1012.33
2017-09-01T00:33:45.765Z,1012.32
2017-09-01T00:34:45.752Z,1012.32
2017-09-01T00:35:45.737Z,1012.35
2017-09-01T00:36:45.720Z,1012.33
2017-09-01T00:37:45.707Z,1012.31
2017-09-01T00:38:45.692Z,1012.35
2017-09-01T00:39:45.678Z,1012.33
2017-09-01T00:40:45.662Z,1012.31
2017-09-01T00:41:45.648Z,1012.33
2017-09-01T00:42:45.633Z,1012.33
2017-09-01T00:43:45.617Z,1012.37
2017-09-01T00:44:45.602Z,1012.35
2017-09-01T00:45:45.588Z,1012.35
2017-09-01T00:46:45.575Z,1012.31
2017-09-01T00:47:45.558Z,1012.32
2017-09-01T00:48:45.544Z,1012.32
2017-09-01T00:49:45.529Z,1012.29
2017-09-01T00:50:45.514Z,1012.31
2017-09-01T00:51:45.501Z,1012.28
2017-09-01T00:52:45.484Z,1012.32
2017-09-01T00:53:45.471Z,1012.31
2017-09-01T00:54:45.454Z,1012.34
2017-09-01T00:55:45.441Z,1012.33
2017-09-01T00:56:45.426Z,1012.36
2017-09-01T00:57:45.410Z,1012.36
2017-09-01T00:58:45.397Z,1012.34
2017-09-01T00:59:45.380Z,1012.35
2017-09-01T01:00:45.367Z,1012.35
2017-09-01T01:01:45.351Z,1012.34
2017-09-01T01:02:45.335Z,1012.35
2017-09-01T01:03:45.322Z,1012.34
2017-09-01T01:04:45.309Z,1012.35
2017-09-01T01:05:45.291Z,1012.35
2017-09-01T01:06:45.277Z,1012.35
2017-09-01T01:07:45.265Z,1012.34
2017-09-01T01:08:45.249Z,1012.39
2017-09-01T01:09:45.234Z,1012.36
2017-09-01T01:10:45.227Z,1012.34
2017-09-01T01:11:45.207Z,1012.35
2017-09-01T01:12:45.210Z,1012.35
2017-09-01T01:13:45.187Z,1012.37
2017-09-01T01:14:45.163Z,1012.35
2017-09-01T01:15:45.145Z,1012.31
2017-09-01T01:16:45.128Z,1012.35
2017-09-01T01:17:45.115Z,1012.34
2017-09-01T01:18:45.100Z,1012.33
2017-09-01T01:19:45.086Z,1012.34
2017-09-01T01:20:45.070Z,1012.33
2017-09-01T01:21:45.056Z,1012.32
2017-09-01T01:22:45.042Z,1012.31
2017-09-01T01:23:45.026Z,1012.36
2017-09-01T01:24:45.011Z,1012.39
2017-09-01T01:25:44.996Z,1012.4
2017-09-01T01:26:44.981Z,1012.42
2017-09-01T01:27:44.964Z,1012.41
2017-09-01T01:28:44.950Z,1012.4
2017-09-01T01:29:44.936Z,1012.42
2017-09-01T01:30:44.921Z,1012.41
2017-09-01T01:31:44.907Z,1012.4
2017-09-01T01:32:44.891Z,1012.39
2017-09-01T01:33:44.877Z,1012.42
2017-09-01T01:34:44.868Z,1012.37
2017-09-01T01:35:44.846Z,1012.38
2017-09-01T01:36:44.834Z,1012.37
2017-09-01T01:37:44.818Z,1012.36
2017-09-01T01:38:44.802Z,1012.4
2017-09-01T01:39:44.788Z,1012.34
2017-09-01T01:40:44.773Z,1012.34
2017-09-01T01:41:44.759Z,1012.37
2017-09-01T01:42:44.743Z,1012.29
2017-09-01T01:43:44.729Z,1012.32
2017-09-01T01:44:44.713Z,1012.32
2017-09-01T01:45:44.701Z,1012.33
2017-09-01T01:46:44.685Z,1012.34
2017-09-01T01:47:44.670Z,1012.32
2017-09-01T01:48:44.655Z,1012.3
2017-09-01T01:49:44.639Z,1012.32
2017-09-01T01:50:44.624Z,1012.34
2017-09-01T01:51:44.608Z,1012.33
2017-09-01T01:52:44.595Z,1012.31
2017-09-01T01:53:44.580Z,1012.32
2017-09-01T01:54:44.563Z,1012.32
2017-09-01T01:55:44.549Z,1012.34
2017-09-01T01:56:44.536Z,1012.31
2017-09-01T01:57:44.519Z,1012.31
2017-09-01T01:58:44.504Z,1012.35
2017-09-01T01:59:44.489Z,1012.32
2017-09-01T02:00:44.476Z,1012.3
2017-09-01T02:01:44.460Z,1012.28
2017-09-01T02:02:44.445Z,1012.28
2017-09-01T02:03:44.547Z,1012.24
2017-09-01T02:04:44.415Z,1012.31
2017-09-01T02:05:44.400Z,1012.3
2017-09-01T02:06:44.385Z,1012.25
2017-09-01T02:07:44.371Z,1012.25
2017-09-01T02:08:44.558Z,1012.22
2017-09-01T02:09:44.342Z,1012.26
2017-09-01T02:10:44.327Z,1012.24
2017-09-01T02:11:44.310Z,1012.21
2017-09-01T02:12:44.295Z,1012.2
2017-09-01T02:13:44.281Z,1012.21
2017-09-01T02:14:44.266Z,1012.22
2017-09-01T02:15:44.252Z,1012.2
2017-09-01T02:16:44.237Z,1012.16
2017-09-01T02:17:44.222Z,1012.22
2017-09-01T02:18:44.204Z,1012.2
2017-09-01T02:19:44.192Z,1012.22
2017-09-01T02:20:44.178Z,1012.21
2017-09-01T02:21:44.165Z,1012.2
2017-09-01T02:22:44.145Z,1012.22
2017-09-01T02:23:44.133Z,1012.19
2017-09-01T02:24:44.115Z,1012.24
2017-09-01T02:25:44.101Z,1012.24
2017-09-01T02:26:44.088Z,1012.23
2017-09-01T02:27:44.070Z,1012.21
2017-09-01T02:28:44.056Z,1012.23
2017-09-01T02:29:44.039Z,1012.21
2017-09-01T02:30:44.025Z,1012.22
2017-09-01T02:31:44.012Z,1012.22
2017-09-01T02:32:43.998Z,1012.16
2017-09-01T02:33:43.980Z,1012.13
2017-09-01T02:34:44.014Z,1012.15
2017-09-01T02:35:43.950Z,1012.17
2017-09-01T02:36:43.935Z,1012.15
2017-09-01T02:37:43.919Z,1012.15
2017-09-01T02:38:43.905Z,1012.15
2017-09-01T02:39:43.890Z,1012.11
2017-09-01T02:40:43.874Z,1012.14
2017-09-01T02:41:43.859Z,1012.13
2017-09-01T02:42:43.845Z,1012.16
2017-09-01T02:43:43.828Z,1012.11
2017-09-01T02:44:43.814Z,1012.13
2017-09-01T02:45:43.799Z,1012.1
2017-09-01T02:46:43.784Z,1012.14
2017-09-01T02:47:43.770Z,1012.12
2017-09-01T02:48:43.753Z,1012.08
2017-09-01T02:49:43.740Z,1012.04
2017-09-01T02:50:43.752Z,1012.08
2017-09-01T02:51:43.707Z,1012.04
2017-09-01T02:52:43.693Z,1012.01
2017-09-01T02:53:43.679Z,1012.06
2017-09-01T02:54:43.663Z,1012.03
2017-09-01T02:55:43.650Z,1012
2017-09-01T02:56:43.631Z,1011.99
2017-09-01T02:57:43.619Z,1011.96
2017-09-01T02:58:43.603Z,1011.92
2017-09-01T02:59:43.587Z,1011.9
2017-09-01T03:00:43.572Z,1011.93
2017-09-01T03:01:43.558Z,1011.94
2017-09-01T03:02:43.540Z,1011.9
2017-09-01T03:03:43.525Z,1011.94
2017-09-01T03:04:43.510Z,1011.95
2017-09-01T03:05:43.496Z,1011.93
2017-09-01T03:06:43.479Z,1011.9
2017-09-01T03:07:43.465Z,1011.88
2017-09-01T03:08:43.449Z,1011.9
2017-09-01T03:09:43.434Z,1011.93
2017-09-01T03:10:43.420Z,1011.91
2017-09-01T03:11:43.402Z,1011.88
2017-09-01T03:12:43.388Z,1011.91
2017-09-01T03:13:43.373Z,1011.87
2017-09-01T03:14:43.357Z,1011.87
2017-09-01T03:15:43.344Z,1011.87
2017-09-01T03:16:43.327Z,1011.86
2017-09-01T03:17:43.311Z,1011.85
2017-09-01T03:18:43.297Z,1011.85
2017-09-01T03:19:43.281Z,1011.84
2017-09-01T03:20:43.266Z,1011.89
2017-09-01T03:21:43.255Z,1011.92
2017-09-01T03:22:43.239Z,1011.89
2017-09-01T03:23:43.220Z,1011.88
2017-09-01T03:24:43.255Z,1011.81
2017-09-01T03:25:43.190Z,1011.87
2017-09-01T03:26:43.176Z,1011.82
2017-09-01T03:27:43.167Z,1011.86
2017-09-01T03:28:43.143Z,1011.82
2017-09-01T03:29:43.129Z,1011.85
2017-09-01T03:30:43.114Z,1011.84
2017-09-01T03:31:43.099Z,1011.84
2017-09-01T03:32:43.083Z,1011.87
2017-09-01T03:33:43.068Z,1011.84
2017-09-01T03:34:43.053Z,1011.92
2017-09-01T03:35:43.036Z,1011.9
2017-09-01T03:36:43.021Z,1011.9
2017-09-01T03:37:43.006Z,1011.91
2017-09-01T03:38:42.993Z,1011.9
2017-09-01T03:39:42.975Z,1011.91
2017-09-01T03:40:42.958Z,1011.92
2017-09-01T03:41:42.947Z,1011.94
2017-09-01T03:42:42.936Z,1011.99
2017-09-01T03:43:42.916Z,1011.95
2017-09-01T03:44:42.902Z,1011.94
2017-09-01T03:45:42.885Z,1011.93
2017-09-01T03:46:42.869Z,1011.94
2017-09-01T03:47:42.855Z,1011.94
2017-09-01T03:48:42.839Z,1011.97
2017-09-01T03:49:42.824Z,1011.97
2017-09-01T03:50:42.809Z,1011.93
2017-09-01T03:51:42.791Z,1011.95
2017-09-01T03:52:42.778Z,1011.96
2017-09-01T03:53:42.762Z,1011.97
2017-09-01T03:54:42.746Z,1011.92
2017-09-01T03:55:42.731Z,1011.94
2017-09-01T03:56:42.719Z,1011.9
2017-09-01T03:57:42.700Z,1011.91
2017-09-01T03:58:42.686Z,1011.89
2017-09-01T03:59:42.669Z,1011.91
2017-09-01T04:00:42.654Z,1011.91
2017-09-01T04:01:42.638Z,1011.87
2017-09-01T04:02:42.624Z,1011.88
2017-09-01T04:03:42.607Z,1011.91
2017-09-01T04:04:42.592Z,1011.88
2017-09-01T04:05:42.577Z,1011.9
2017-09-01T04:06:42.562Z,1011.89
2017-09-01T04:07:42.547Z,1011.9
2017-09-01T04:08:42.731Z,1011.89
2017-09-01T04:09:42.516Z,1011.88
2017-09-01T04:10:42.499Z,1011.89
2017-09-01T04:11:42.485Z,1011.89
2017-09-01T04:12:42.468Z,1011.93
2017-09-01T04:13:42.454Z,1011.9
2017-09-01T04:14:42.446Z,1011.93
2017-09-01T04:15:42.421Z,1011.94
2017-09-01T04:16:42.408Z,1011.91
2017-09-01T04:17:42.394Z,1011.91
2017-09-01T04:18:42.377Z,1011.87
2017-09-01T04:19:42.360Z,1011.89
2017-09-01T04:20:42.345Z,1011.89
2017-09-01T04:21:42.330Z,1011.9
2017-09-01T04:22:42.315Z,1011.89
2017-09-01T04:23:42.300Z,1011.88
2017-09-01T04:24:42.283Z,1011.91
2017-09-01T04:25:42.271Z,1011.9
2017-09-01T04:26:42.253Z,1011.92
2017-09-01T04:27:42.237Z,1011.94
2017-09-01T04:28:42.222Z,1011.93
2017-09-01T04:29:42.207Z,1011.92
2017-09-01T04:30:42.190Z,1011.92
2017-09-01T04:31:42.177Z,1011.89
2017-09-01T04:32:42.166Z,1011.93
2017-09-01T04:33:42.147Z,1011.92
2017-09-01T04:34:42.131Z,1011.92
2017-09-01T04:35:42.115Z,1011.93
2017-09-01T04:36:42.100Z,1011.91
2017-09-01T04:37:42.084Z,1011.88
2017-09-01T04:38:42.069Z,1011.9
2017-09-01T04:39:42.054Z,1011.92
2017-09-01T04:40:42.041Z,1011.94
2017-09-01T04:41:42.024Z,1011.92
2017-09-01T04:42:42.012Z,1011.97
2017-09-01T04:43:41.993Z,1011.91
2017-09-01T04:44:41.978Z,1011.91
2017-09-01T04:45:41.963Z,1011.92
2017-09-01T04:46:41.947Z,1011.94
2017-09-01T04:47:41.932Z,1012
2017-09-01T04:48:41.916Z,1011.95
2017-09-01T04:49:41.902Z,1011.98
2017-09-01T04:50:41.888Z,1012.01
2017-09-01T04:51:41.872Z,1012.03
2017-09-01T04:52:41.880Z,1012.01
2017-09-01T04:53:41.844Z,1012.05
2017-09-01T04:54:41.827Z,1012.08
2017-09-01T04:55:41.813Z,1012.09
2017-09-01T04:56:41.800Z,1012.11
2017-09-01T04:57:41.783Z,1012.15
2017-09-01T04:58:41.769Z,1012.14
2017-09-01T04:59:41.752Z,1012.13
2017-09-01T05:00:41.739Z,1012.15
2017-09-01T05:01:41.724Z,1012.12
2017-09-01T05:02:41.710Z,1012.17
2017-09-01T05:03:41.701Z,1012.19
2017-09-01T05:04:41.678Z,1012.16
2017-09-01T05:05:41.662Z,1012.16
2017-09-01T05:06:41.649Z,1012.14
2017-09-01T05:07:41.634Z,1012.16
2017-09-01T05:08:41.618Z,1012.16
2017-09-01T05:09:41.605Z,1012.15
2017-09-01T05:10:41.588Z,1012.2
2017-09-01T05:11:41.575Z,1012.16
2017-09-01T05:12:41.560Z,1012.23
2017-09-01T05:13:41.547Z,1012.18
2017-09-01T05:14:41.531Z,1012.18
2017-09-01T05:15:41.516Z,1012.19
2017-09-01T05:16:41.504Z,1012.19
2017-09-01T05:17:41.486Z,1012.2
2017-09-01T05:18:41.473Z,1012.2
2017-09-01T05:19:41.457Z,1012.22
2017-09-01T05:20:41.444Z,1012.21
2017-09-01T05:21:41.429Z,1012.19
2017-09-01T05:22:41.415Z,1012.23
2017-09-01T05:23:41.400Z,1012.25
2017-09-01T05:24:41.388Z,1012.26
2017-09-01T05:25:41.373Z,1012.26
2017-09-01T05:26:41.357Z,1012.26
2017-09-01T05:27:41.342Z,1012.28
2017-09-01T05:28:41.329Z,1012.33
2017-09-01T05:29:41.316Z,1012.3
2017-09-01T05:30:41.299Z,1012.33
2017-09-01T05:31:41.286Z,1012.33
2017-09-01T05:32:41.268Z,1012.4
2017-09-01T05:33:41.255Z,1012.37
2017-09-01T05:34:41.242Z,1012.48
2017-09-01T05:35:41.228Z,1012.51
2017-09-01T05:36:41.214Z,1012.56
2017-09-01T05:37:41.202Z,1012.56
2017-09-01T05:38:41.185Z,1012.59
2017-09-01T05:39:41.170Z,1012.62
2017-09-01T05:40:41.164Z,1012.68
2017-09-01T05:41:41.142Z,1012.62
2017-09-01T05:42:41.129Z,1012.59
2017-09-01T05:43:41.115Z,1012.59
2017-09-01T05:44:41.102Z,1012.59
2017-09-01T05:45:41.085Z,1012.57
2017-09-01T05:46:41.072Z,1012.56
2017-09-01T05:47:41.058Z,1012.54
2017-09-01T05:48:41.045Z,1012.54
2017-09-01T05:49:41.031Z,1012.55
2017-09-01T05:50:41.014Z,1012.56
2017-09-01T05:51:41.004Z,1012.56
2017-09-01T05:52:40.989Z,1012.57
2017-09-01T05:53:40.975Z,1012.58
2017-09-01T05:54:40.986Z,1012.6
2017-09-01T05:55:40.949Z,1012.58
2017-09-01T05:56:40.935Z,1012.63
2017-09-01T05:57:40.919Z,1012.63
2017-09-01T05:58:40.905Z,1012.62
2017-09-01T05:59:40.891Z,1012.62
2017-09-01T06:00:40.877Z,1012.67
2017-09-01T06:01:40.863Z,1012.62
2017-09-01T06:02:40.850Z,1012.65
2017-09-01T06:03:40.836Z,1012.62
2017-09-01T06:04:40.823Z,1012.59
2017-09-01T06:05:40.811Z,1012.56
2017-09-01T06:06:40.801Z,1012.59
2017-09-01T06:07:40.783Z,1012.57
2017-09-01T06:08:40.971Z,1012.55
2017-09-01T06:09:40.753Z,1012.58
2017-09-01T06:10:40.741Z,1012.58
2017-09-01T06:11:40.728Z,1012.62
2017-09-01T06:12:40.713Z,1012.63
2017-09-01T06:13:40.720Z,1012.6
2017-09-01T06:14:40.688Z,1012.63
2017-09-01T06:15:40.673Z,1012.64
2017-09-01T06:16:40.660Z,1012.62
2017-09-01T06:17:40.646Z,1012.65
2017-09-01T06:18:40.633Z,1012.63
2017-09-01T06:19:40.621Z,1012.61
2017-09-01T06:20:40.606Z,1012.66
2017-09-01T06:21:40.594Z,1012.64
2017-09-01T06:22:40.580Z,1012.66
2017-09-01T06:23:40.566Z,1012.67
2017-09-01T06:24:40.553Z,1012.68
2017-09-01T06:25:40.542Z,1012.67
2017-09-01T06:26:40.527Z,1012.69
2017-09-01T06:27:40.515Z,1012.64
2017-09-01T06:28:40.506Z,1012.62
2017-09-01T06:29:40.488Z,1012.65
2017-09-01T06:30:40.477Z,1012.63
2017-09-01T06:31:40.464Z,1012.62
2017-09-01T06:32:40.451Z,1012.58
2017-09-01T06:33:40.437Z,1012.55
2017-09-01T06:34:40.422Z,1012.54
2017-09-01T06:35:40.410Z,1012.54
2017-09-01T06:36:40.398Z,1012.52
2017-09-01T06:37:40.384Z,1012.56
2017-09-01T06:38:40.371Z,1012.57
2017-09-01T06:39:40.361Z,1012.55
2017-09-01T06:40:40.347Z,1012.58
2017-09-01T06:41:40.333Z,1012.58
2017-09-01T06:42:40.322Z,1012.58
2017-09-01T06:43:40.308Z,1012.58
2017-09-01T06:44:40.297Z,1012.55
2017-09-01T06:45:40.281Z,1012.59
2017-09-01T06:46:40.268Z,1012.55
2017-09-01T06:47:40.256Z,1012.55
2017-09-01T06:48:40.244Z,1012.6
2017-09-01T06:49:40.229Z,1012.62
2017-09-01T06:50:40.218Z,1012.62
2017-09-01T06:51:40.206Z,1012.63
2017-09-01T06:52:40.193Z,1012.6
2017-09-01T06:53:40.180Z,1012.61
2017-09-01T06:54:40.168Z,1012.61
2017-09-01T06:55:40.154Z,1012.6
2017-09-01T06:56:40.141Z,1012.63
2017-09-01T06:57:40.130Z,1012.61
2017-09-01T06:58:40.120Z,1012.66
2017-09-01T06:59:40.105Z,1012.67
2017-09-01T07:00:40.092Z,1012.7
2017-09-01T07:01:40.079Z,1012.65
2017-09-01T07:02:40.067Z,1012.67
2017-09-01T07:03:40.055Z,1012.63
2017-09-01T07:04:40.041Z,1012.67
2017-09-01T07:05:40.030Z,1012.65
2017-09-01T07:06:40.017Z,1012.64
2017-09-01T07:07:40.007Z,1012.67
2017-09-01T07:08:39.991Z,1012.66
2017-09-01T07:09:39.980Z,1012.68
2017-09-01T07:10:39.967Z,1012.69
2017-09-01T07:11:39.956Z,1012.7
2017-09-01T07:12:39.944Z,1012.75
2017-09-01T07:13:39.932Z,1012.8
2017-09-01T07:14:39.919Z,1012.8
2017-09-01T07:15:39.910Z,1012.81
2017-09-01T07:16:39.896Z,1012.81
2017-09-01T07:17:39.883Z,1012.82
2017-09-01T07:18:39.870Z,1012.8
2017-09-01T07:19:39.859Z,1012.76
2017-09-01T07:20:39.850Z,1012.76
2017-09-01T07:21:39.838Z,1012.72
2017-09-01T07:22:39.823Z,1012.74
2017-09-01T07:23:39.811Z,1012.71
2017-09-01T07:24:39.800Z,1012.72
2017-09-01T07:25:39.789Z,1012.72
2017-09-01T07:26:39.775Z,1012.73
2017-09-01T07:27:39.765Z,1012.72
2017-09-01T07:28:39.753Z,1012.78
2017-09-01T07:29:39.741Z,1012.77
2017-09-01T07:30:39.736Z,1012.78
2017-09-01T07:31:39.719Z,1012.76
2017-09-01T07:32:39.710Z,1012.78
2017-09-01T07:33:39.695Z,1012.8
2017-09-01T07:34:39.684Z,1012.82
2017-09-01T07:35:39.697Z,1012.8
2017-09-01T07:36:39.659Z,1012.83
2017-09-01T07:37:39.646Z,1012.82
2017-09-01T07:38:39.637Z,1012.81
2017-09-01T07:39:39.626Z,1012.81
2017-09-01T07:40:39.614Z,1012.79
2017-09-01T07:41:39.602Z,1012.78
2017-09-01T07:42:39.616Z,1012.78
2017-09-01T07:43:39.581Z,1012.8
2017-09-01T07:44:39.570Z,1012.82
2017-09-01T07:45:39.558Z,1012.78
2017-09-01T07:46:39.547Z,1012.8
2017-09-01T07:47:39.534Z,1012.84
2017-09-01T07:48:39.526Z,1012.79
2017-09-01T07:49:39.513Z,1012.83
2017-09-01T07:50:39.505Z,1012.77
2017-09-01T07:51:39.491Z,1012.78
2017-09-01T07:52:39.480Z,1012.75
2017-09-01T07:53:39.470Z,1012.75
2017-09-01T07:54:39.458Z,1012.77
2017-09-01T07:55:39.455Z,1012.74
2017-09-01T07:56:39.436Z,1012.76
2017-09-01T07:57:39.428Z,1012.77
2017-09-01T07:58:39.415Z,1012.75
2017-09-01T07:59:39.406Z,1012.77
2017-09-01T08:00:39.396Z,1012.77
2017-09-01T08:01:39.386Z,1012.75
2017-09-01T08:02:39.377Z,1012.74
2017-09-01T08:03:39.363Z,1012.77
2017-09-01T08:04:39.354Z,1012.76
2017-09-01T08:05:39.346Z,1012.74
2017-09-01T08:06:39.335Z,1012.76
2017-09-01T08:07:39.322Z,1012.76
2017-09-01T08:08:39.518Z,1012.78
2017-09-01T08:09:39.300Z,1012.77
2017-09-01T08:10:39.292Z,1012.76
2017-09-01T08:11:39.281Z,1012.77
2017-09-01T08:12:39.269Z,1012.78
2017-09-01T08:13:39.259Z,1012.75
2017-09-01T08:14:39.249Z,1012.74
2017-09-01T08:15:39.239Z,1012.78
2017-09-01T08:16:39.228Z,1012.84
2017-09-01T08:17:39.218Z,1012.83
2017-09-01T08:18:39.214Z,1012.8
2017-09-01T08:19:39.198Z,1012.81
2017-09-01T08:20:39.189Z,1012.83
2017-09-01T08:21:39.179Z,1012.81
2017-09-01T08:22:39.170Z,1012.84
2017-09-01T08:23:39.161Z,1012.86
2017-09-01T08:24:39.150Z,1012.88
2017-09-01T08:25:39.142Z,1012.84
2017-09-01T08:26:39.131Z,1012.85
2017-09-01T08:27:39.122Z,1012.83
2017-09-01T08:28:39.113Z,1012.82
2017-09-01T08:29:39.104Z,1012.81
2017-09-01T08:30:39.095Z,1012.8
2017-09-01T08:31:39.087Z,1012.8
2017-09-01T08:32:39.076Z,1012.74
2017-09-01T08:33:39.067Z,1012.76
2017-09-01T08:34:39.059Z,1012.72
2017-09-01T08:35:39.057Z,1012.66
2017-09-01T08:36:39.042Z,1012.66
2017-09-01T08:37:39.029Z,1012.64
2017-09-01T08:38:39.021Z,1012.6
2017-09-01T08:39:39.009Z,1012.59
2017-09-01T08:40:39.002Z,1012.56
2017-09-01T08:41:38.995Z,1012.57
2017-09-01T08:42:38.985Z,1012.56
2017-09-01T08:43:38.974Z,1012.58
2017-09-01T08:44:38.965Z,1012.57
2017-09-01T08:45:38.959Z,1012.59
2017-09-01T08:46:38.946Z,1012.52
2017-09-01T08:47:38.937Z,1012.57
2017-09-01T08:48:38.929Z,1012.55
2017-09-01T08:49:38.917Z,1012.58
2017-09-01T08:50:38.907Z,1012.59
2017-09-01T08:51:38.903Z,1012.58
2017-09-01T08:52:38.890Z,1012.61
2017-09-01T08:53:38.880Z,1012.61
2017-09-01T08:54:38.876Z,1012.59
2017-09-01T08:55:38.862Z,1012.6
2017-09-01T08:56:38.852Z,1012.59
2017-09-01T08:57:38.841Z,1012.6
2017-09-01T08:58:38.836Z,1012.58
2017-09-01T08:59:38.825Z,1012.65
2017-09-01T09:00:38.814Z,1012.64
2017-09-01T09:01:38.806Z,1012.65
2017-09-01T09:02:38.800Z,1012.65
2017-09-01T09:03:38.789Z,1012.66
2017-09-01T09:04:38.797Z,1012.67
2017-09-01T09:05:38.770Z,1012.64
2017-09-01T09:06:38.759Z,1012.69
2017-09-01T09:07:38.752Z,1012.69
2017-09-01T09:08:38.748Z,1012.66
2017-09-01T09:09:38.749Z,1012.59
2017-09-01T09:10:38.723Z,1012.61
2017-09-01T09:11:38.715Z,1012.63
2017-09-01T09:12:38.727Z,1012.62
2017-09-01T09:13:38.702Z,1012.61
2017-09-01T09:14:38.693Z,1012.6
2017-09-01T09:15:38.681Z,1012.61
2017-09-01T09:16:38.677Z,1012.58
2017-09-01T09:17:38.670Z,1012.56
2017-09-01T09:18:38.658Z,1012.57
2017-09-01T09:19:38.651Z,1012.62
2017-09-01T09:20:38.644Z,1012.57
2017-09-01T09:21:38.636Z,1012.61
2017-09-01T09:22:38.622Z,1012.61
2017-09-01T09:23:38.631Z,1012.61
2017-09-01T09:24:38.623Z,1012.65
2017-09-01T09:25:38.653Z,1012.63
2017-09-01T09:26:38.590Z,1012.66
2017-09-01T09:27:38.584Z,1012.66
2017-09-01T09:28:38.572Z,1012.64
2017-09-01T09:29:38.565Z,1012.66
2017-09-01T09:30:38.556Z,1012.7
2017-09-01T09:31:38.571Z,1012.68
2017-09-01T09:32:38.542Z,1012.7
2017-09-01T09:33:38.539Z,1012.72
2017-09-01T09:34:38.522Z,1012.72
2017-09-01T09:35:38.532Z,1012.71
2017-09-01T09:36:38.507Z,1012.7
2017-09-01T09:37:38.498Z,1012.67
2017-09-01T09:38:38.492Z,1012.69
2017-09-01T09:39:38.488Z,1012.71
2017-09-01T09:40:38.480Z,1012.67
2017-09-01T09:41:38.467Z,1012.68
2017-09-01T09:42:38.461Z,1012.67
2017-09-01T09:43:38.504Z,1012.65
2017-09-01T09:44:38.446Z,1012.64
2017-09-01T09:45:38.437Z,1012.61
2017-09-01T09:46:38.431Z,1012.58
2017-09-01T09:47:38.425Z,1012.58
2017-09-01T09:48:38.417Z,1012.6
2017-09-01T09:49:38.409Z,1012.59
2017-09-01T09:50:38.405Z,1012.55
2017-09-01T09:51:38.396Z,1012.58
2017-09-01T09:52:38.386Z,1012.52
2017-09-01T09:53:38.378Z,1012.5
2017-09-01T09:54:38.375Z,1012.48
2017-09-01T09:55:38.363Z,1012.52
2017-09-01T09:56:38.357Z,1012.51
2017-09-01T09:57:38.349Z,1012.49
2017-09-01T09:58:38.392Z,1012.48
2017-09-01T09:59:38.335Z,1012.47
2017-09-01T10:00:38.328Z,1012.5
2017-09-01T10:01:38.319Z,1012.53
2017-09-01T10:02:38.312Z,1012.49
2017-09-01T10:03:38.308Z,1012.49
2017-09-01T10:04:38.299Z,1012.47
2017-09-01T10:05:38.291Z,1012.48
2017-09-01T10:06:38.288Z,1012.49
2017-09-01T10:07:38.276Z,1012.47
2017-09-01T10:08:38.269Z,1012.48
2017-09-01T10:09:38.268Z,1012.46
2017-09-01T10:10:38.254Z,1012.45
2017-09-01T10:11:38.246Z,1012.46
2017-09-01T10:12:38.239Z,1012.45
2017-09-01T10:13:38.231Z,1012.44
2017-09-01T10:14:38.224Z,1012.42
2017-09-01T10:15:38.215Z,1012.47
2017-09-01T10:16:38.209Z,1012.48
2017-09-01T10:17:38.202Z,1012.49
2017-09-01T10:18:38.195Z,1012.52
2017-09-01T10:19:38.190Z,1012.48
2017-09-01T10:20:38.180Z,1012.46
2017-09-01T10:21:38.173Z,1012.44
2017-09-01T10:22:38.165Z,1012.47
2017-09-01T10:23:38.159Z,1012.4
2017-09-01T10:24:38.151Z,1012.45
2017-09-01T10:25:38.144Z,1012.41
2017-09-01T10:26:38.135Z,1012.43
2017-09-01T10:27:38.131Z,1012.44
2017-09-01T10:28:38.123Z,1012.42
2017-09-01T10:29:38.114Z,1012.37
2017-09-01T10:30:38.110Z,1012.42
2017-09-01T10:31:38.103Z,1012.39
2017-09-01T10:32:38.092Z,1012.4
2017-09-01T10:33:38.086Z,1012.36
2017-09-01T10:34:38.078Z,1012.37
2017-09-01T10:35:38.069Z,1012.41
2017-09-01T10:36:38.064Z,1012.36
2017-09-01T10:37:38.059Z,1012.36
2017-09-01T10:38:38.050Z,1012.38
2017-09-01T10:39:38.043Z,1012.37
2017-09-01T10:40:38.037Z,1012.36
2017-09-01T10:41:38.028Z,1012.37
2017-09-01T10:42:38.023Z,1012.34
2017-09-01T10:43:38.014Z,1012.35
2017-09-01T10:44:38.007Z,1012.35
2017-09-01T10:45:38.006Z,1012.37
2017-09-01T10:46:37.995Z,1012.32
2017-09-01T10:47:37.989Z,1012.34
2017-09-01T10:48:37.982Z,1012.3
2017-09-01T10:49:37.977Z,1012.24
2017-09-01T10:50:37.971Z,1012.27
2017-09-01T10:51:37.965Z,1012.25
2017-09-01T10:52:37.959Z,1012.27
2017-09-01T10:53:37.954Z,1012.29
2017-09-01T10:54:37.950Z,1012.21
2017-09-01T10:55:37.940Z,1012.32
2017-09-01T10:56:37.937Z,1012.21
2017-09-01T10:57:37.929Z,1012.22
2017-09-01T10:58:37.925Z,1012.22
2017-09-01T10:59:37.922Z,1012.25
2017-09-01T11:00:37.917Z,1012.23
2017-09-01T11:01:37.908Z,1012.23
2017-09-01T11:02:37.904Z,1012.23
2017-09-01T11:03:37.915Z,1012.28
2017-09-01T11:04:37.900Z,1012.21
2017-09-01T11:05:37.895Z,1012.22
2017-09-01T11:06:37.880Z,1012.22
2017-09-01T11:07:37.875Z,1012.18
2017-09-01T11:08:37.871Z,1012.18
2017-09-01T11:09:37.863Z,1012.16
2017-09-01T11:10:37.856Z,1012.18
2017-09-01T11:11:37.860Z,1012.24
2017-09-01T11:12:37.847Z,1012.22
2017-09-01T11:13:37.837Z,1012.21
2017-09-01T11:14:37.850Z,1012.19
2017-09-01T11:15:37.827Z,1012.21
2017-09-01T11:16:37.819Z,1012.21
2017-09-01T11:17:37.813Z,1012.2
2017-09-01T11:18:37.805Z,1012.21
2017-09-01T11:19:37.801Z,1012.23
2017-09-01T11:20:37.802Z,1012.21
2017-09-01T11:21:37.786Z,1012.21
2017-09-01T11:22:37.780Z,1012.19
2017-09-01T11:23:37.772Z,1012.19
2017-09-01T11:24:37.765Z,1012.17
2017-09-01T11:25:37.758Z,1012.19
2017-09-01T11:26:37.753Z,1012.13
2017-09-01T11:27:37.745Z,1012.1
2017-09-01T11:28:37.738Z,1012.16
2017-09-01T11:29:37.731Z,1012.09
2017-09-01T11:30:37.723Z,1012.09
2017-09-01T11:31:37.718Z,1012.05
2017-09-01T11:32:37.709Z,1012.07
2017-09-01T11:33:37.701Z,1012.05
2017-09-01T11:34:37.693Z,1012.06
2017-09-01T11:35:37.686Z,1012.03
2017-09-01T11:36:37.679Z,1012.05
2017-09-01T11:37:37.674Z,1012.08
2017-09-01T11:38:37.665Z,1012.08
2017-09-01T11:39:37.657Z,1012.11
2017-09-01T11:40:37.651Z,1012.09
2017-09-01T11:41:37.642Z,1012.07
2017-09-01T11:42:37.633Z,1012.14
2017-09-01T11:43:37.629Z,1012.1
2017-09-01T11:44:37.618Z,1012.09
2017-09-01T11:45:37.615Z,1012.08
2017-09-01T11:46:37.602Z,1012.11
2017-09-01T11:47:37.593Z,1012.13
2017-09-01T11:48:37.587Z,1012.13
2017-09-01T11:49:37.642Z,1012.15
2017-09-01T11:50:37.571Z,1012.13
2017-09-01T11:51:37.616Z,1012.12
2017-09-01T11:52:37.554Z,1012.12
2017-09-01T11:53:37.557Z,1012.13
2017-09-01T11:54:37.539Z,1012.12
2017-09-01T11:55:37.529Z,1012.07
2017-09-01T11:56:37.523Z,1012.07
2017-09-01T11:57:37.514Z,1012.02
2017-09-01T11:58:37.504Z,1011.98
2017-09-01T11:59:37.498Z,1012.03
2017-09-01T12:00:37.488Z,1011.98
2017-09-01T12:01:37.481Z,1012
2017-09-01T12:02:37.469Z,1011.99
2017-09-01T12:03:37.461Z,1012.03
2017-09-01T12:04:37.455Z,1012.02
2017-09-01T12:05:37.450Z,1012.03
2017-09-01T12:06:37.436Z,1012.02
2017-09-01T12:07:37.429Z,1012.04
2017-09-01T12:08:37.420Z,1012.04